HTDA

Julius Nyerere International Airport

Dar es Salaam, Tanzania
METAR HTDA 092100Z 04005KT 9999 FEW014 27/25 Q1013 NOSIG
Observed Flight Rules
Dec-9 @ 21:00 UTC (an hour ago) Visual Flight Rules
Wind Visibility Clouds
40° at 5 knots 10,000+ meters
  • Few at 1,400' AGL
Temperatures Readings
Current 27°C / 81°F
Dewpoint 25°C / 77°F
Humidity 89%
Altimeter 29.91" Hg
Pressure 1013 hPa
Elevation 55
METAR HTDA 092100Z 04005KT 9999 FEW014 27/25 Q1013 NOSIG
Observed Flight Rules
Dec-9 @ 21:00 UTC
(an hour ago)
VFR
Wind Visibility
40° at 5 knots 10,000+ meters
Clouds
  • Few at 1,400' AGL
Temperature Dewpoint
27°C / 81°F 25°C / 77°F
Humidity Altimeter Pressure
89% 29.91" Hg 1013 hPa